createdAt,value
2022-08-01T00:01:38.435Z,95369.25
2022-08-01T00:04:04.786Z,95373.06
2022-08-01T00:06:31.169Z,95363.81
2022-08-01T00:08:57.544Z,95364.53
2022-08-01T00:11:23.914Z,95369.63
2022-08-01T00:13:50.264Z,95365.97
2022-08-01T00:16:16.634Z,95373.06
2022-08-01T00:18:42.975Z,95368.16
2022-08-01T00:21:09.326Z,95374.91
2022-08-01T00:23:35.698Z,95372.53
2022-08-01T00:26:02.054Z,95375.63
2022-08-01T00:28:28.408Z,95368.53
2022-08-01T00:30:54.748Z,95370.53
2022-08-01T00:33:21.105Z,95378.69
2022-08-01T00:35:47.479Z,95373.81
2022-08-01T00:38:13.880Z,95372.00
2022-08-01T00:40:40.221Z,95370.91
2022-08-01T00:43:06.588Z,95365.97
2022-08-01T00:45:32.952Z,95359.81
2022-08-01T00:47:59.304Z,95365.25
2022-08-01T00:50:25.669Z,95359.44
2022-08-01T00:52:52.052Z,95360.38
2022-08-01T00:55:18.454Z,95359.66
2022-08-01T00:58:02.784Z,95361.06
2022-08-01T01:00:31.274Z,95367.81
2022-08-01T01:03:01.342Z,95361.09
2022-08-01T01:05:27.696Z,95359.81
2022-08-01T01:07:54.075Z,95367.81
2022-08-01T01:10:20.432Z,95365.97
2022-08-01T01:12:49.974Z,95370.91
2022-08-01T01:15:16.677Z,95361.25
2022-08-01T01:17:51.423Z,95367.81
2022-08-01T01:20:18.245Z,95367.25
2022-08-01T01:22:44.598Z,95360.34
2022-08-01T01:25:10.984Z,95353.09
2022-08-01T01:27:37.346Z,95365.44
2022-08-01T01:30:03.693Z,95358.72
2022-08-01T01:32:30.998Z,95371.25
2022-08-01T01:34:57.600Z,95367.06
2022-08-01T01:37:23.962Z,95365.97
2022-08-01T01:39:54.226Z,95374.00
2022-08-01T01:42:20.860Z,95369.63
2022-08-01T01:44:47.209Z,95377.28
2022-08-01T01:47:13.625Z,95374.16
2022-08-01T01:49:39.979Z,95373.63
2022-08-01T01:52:06.553Z,95375.81
2022-08-01T01:54:33.084Z,95370.69
2022-08-01T01:56:59.435Z,95373.81
2022-08-01T01:59:25.971Z,95369.44
2022-08-01T02:02:05.160Z,95372.34
2022-08-01T02:04:31.951Z,95374.13
2022-08-01T02:06:58.300Z,95365.41
2022-08-01T02:09:24.645Z,95367.25
2022-08-01T02:12:07.957Z,95377.78
2022-08-01T02:14:35.516Z,95372.34
2022-08-01T02:17:01.880Z,95375.06
2022-08-01T02:19:28.236Z,95374.16
2022-08-01T02:21:54.633Z,95372.53
2022-08-01T02:24:20.998Z,95373.97
2022-08-01T02:26:56.991Z,95366.91
2022-08-01T02:29:23.346Z,95376.34
2022-08-01T02:31:49.715Z,95369.97
2022-08-01T02:34:16.086Z,95365.97
2022-08-01T02:36:42.431Z,95370.88
2022-08-01T02:39:08.778Z,95369.59
2022-08-01T02:41:35.207Z,95368.53
2022-08-01T02:44:01.555Z,95368.00
2022-08-01T02:46:27.906Z,95373.28
2022-08-01T02:48:54.356Z,95368.69
2022-08-01T02:51:20.777Z,95369.06
2022-08-01T02:53:47.128Z,95366.72
2022-08-01T02:56:13.515Z,95360.72
2022-08-01T02:58:39.865Z,95362.72
2022-08-01T03:01:06.252Z,95361.63
2022-08-01T03:03:34.215Z,95358.38
2022-08-01T03:06:00.562Z,95355.84
2022-08-01T03:08:26.937Z,95348.94
2022-08-01T03:10:53.304Z,95351.66
2022-08-01T03:13:19.798Z,95353.66
2022-08-01T03:15:46.179Z,95347.84
2022-08-01T03:18:12.531Z,95348.00
2022-08-01T03:20:38.886Z,95351.25
2022-08-01T03:23:05.237Z,95347.84
2022-08-01T03:25:31.603Z,95349.81
2022-08-01T03:27:57.966Z,95347.81
2022-08-01T03:30:24.335Z,95351.63
2022-08-01T03:32:50.701Z,95344.75
2022-08-01T03:35:17.057Z,95357.25
2022-08-01T03:38:13.178Z,95352.19
2022-08-01T03:40:29.770Z,95360.91
2022-08-01T03:42:56.122Z,95361.44
2022-08-01T03:45:22.475Z,95355.44
2022-08-01T03:47:48.833Z,95359.66
2022-08-01T03:50:18.347Z,95357.09
2022-08-01T03:52:44.701Z,95358.16
2022-08-01T03:55:11.058Z,95358.72
2022-08-01T03:57:37.427Z,95361.06
2022-08-01T04:00:03.808Z,95359.66
2022-08-01T04:02:30.159Z,95359.09
2022-08-01T04:04:56.529Z,95359.25
2022-08-01T04:07:22.902Z,95352.19
2022-08-01T04:09:49.250Z,95352.91
2022-08-01T04:12:15.615Z,95351.28
2022-08-01T04:14:41.961Z,95353.47
2022-08-01T04:17:08.335Z,95359.81
2022-08-01T04:19:34.686Z,95360.53
2022-08-01T04:22:01.071Z,95359.47
2022-08-01T04:24:27.456Z,95354.72
2022-08-01T04:26:53.887Z,95357.06
2022-08-01T04:29:20.249Z,95355.81
2022-08-01T04:31:46.601Z,95360.00
2022-08-01T04:34:12.964Z,95361.25
2022-08-01T04:36:39.334Z,95368.16
2022-08-01T04:39:05.719Z,95364.53
2022-08-01T04:41:32.097Z,95369.78
2022-08-01T04:43:58.455Z,95374.34
2022-08-01T04:46:24.815Z,95375.41
2022-08-01T04:48:51.226Z,95378.34
2022-08-01T04:51:17.613Z,95373.41
2022-08-01T04:53:43.967Z,95375.97
2022-08-01T04:56:10.329Z,95371.97
2022-08-01T04:58:36.680Z,95376.81
2022-08-01T05:01:03.087Z,95371.03
2022-08-01T05:03:29.505Z,95380.13
2022-08-01T05:05:55.851Z,95377.59
2022-08-01T05:08:22.214Z,95382.69
2022-08-01T05:10:48.580Z,95382.31
2022-08-01T05:13:14.928Z,95376.69
2022-08-01T05:15:41.319Z,95375.78
2022-08-01T05:18:08.657Z,95380.69
2022-08-01T05:20:35.874Z,95384.69
2022-08-01T05:23:02.338Z,95381.22
2022-08-01T05:25:56.952Z,95376.88
2022-08-01T05:28:18.907Z,95380.16
2022-08-01T05:30:45.828Z,95381.03
2022-08-01T05:33:12.187Z,95376.84
2022-08-01T05:35:48.694Z,95377.59
2022-08-01T05:38:15.828Z,95385.22
2022-08-01T05:40:42.175Z,95380.91
2022-08-01T05:43:08.541Z,95381.25
2022-08-01T05:45:34.899Z,95379.25
2022-08-01T05:48:01.254Z,95384.50
2022-08-01T05:50:27.607Z,95380.88
2022-08-01T05:52:53.988Z,95383.44
2022-08-01T05:55:20.339Z,95382.72
2022-08-01T05:57:46.713Z,95386.34
2022-08-01T06:00:13.063Z,95385.03
2022-08-01T06:02:39.464Z,95387.06
2022-08-01T06:05:08.153Z,95392.34
2022-08-01T06:07:37.769Z,95391.78
2022-08-01T06:10:05.769Z,95391.59
2022-08-01T06:12:35.489Z,95396.13
2022-08-01T06:15:02.171Z,95398.66
2022-08-01T06:17:28.537Z,95395.19
2022-08-01T06:19:54.900Z,95399.19
2022-08-01T06:22:21.279Z,95402.59
2022-08-01T06:24:48.237Z,95399.38
2022-08-01T06:27:22.430Z,95396.75
2022-08-01T06:29:51.211Z,95392.81
2022-08-01T06:32:27.003Z,95397.16
2022-08-01T06:34:54.167Z,95396.63
2022-08-01T06:37:20.526Z,95392.28
2022-08-01T06:39:46.878Z,95388.09
2022-08-01T06:42:13.233Z,95393.19
2022-08-01T06:44:39.583Z,95386.06
2022-08-01T06:47:05.940Z,95388.22
2022-08-01T06:49:32.353Z,95394.75
2022-08-01T06:51:58.722Z,95394.22
2022-08-01T06:54:25.094Z,95391.56
2022-08-01T06:56:51.461Z,95388.94
2022-08-01T06:59:17.817Z,95396.75
2022-08-01T07:01:44.161Z,95391.09
2022-08-01T07:04:10.552Z,95387.75
2022-08-01T07:06:36.907Z,95394.66
2022-08-01T07:09:09.450Z,95393.03
2022-08-01T07:11:38.574Z,95392.28
2022-08-01T07:14:04.934Z,95392.13
2022-08-01T07:16:31.300Z,95394.84
2022-08-01T07:18:57.687Z,95393.25
2022-08-01T07:21:40.463Z,95396.50
2022-08-01T07:24:13.189Z,95390.50
2022-08-01T07:26:40.385Z,95388.50
2022-08-01T07:29:19.183Z,95389.59
2022-08-01T07:31:45.558Z,95387.78
2022-08-01T07:34:11.922Z,95394.13
2022-08-01T07:36:38.349Z,95387.75
2022-08-01T07:39:04.760Z,95389.94
2022-08-01T07:41:52.830Z,95385.59
2022-08-01T07:44:17.471Z,95396.66
2022-08-01T07:46:43.823Z,95383.25
2022-08-01T07:49:10.209Z,95381.97
2022-08-01T07:51:36.622Z,95382.66
2022-08-01T07:54:02.970Z,95381.78
2022-08-01T07:56:29.326Z,95374.66
2022-08-01T07:58:55.692Z,95372.50
2022-08-01T08:01:22.131Z,95379.94
2022-08-01T08:03:48.549Z,95371.78
2022-08-01T08:06:14.920Z,95374.84
2022-08-01T08:08:41.282Z,95375.75
2022-08-01T08:11:07.644Z,95372.50
2022-08-01T08:13:34.004Z,95377.22
2022-08-01T08:16:00.383Z,95382.31
2022-08-01T08:18:26.745Z,95381.75
2022-08-01T08:20:53.109Z,95379.56
2022-08-01T08:23:41.391Z,95374.31
2022-08-01T08:26:05.879Z,95375.75
2022-08-01T08:28:32.241Z,95380.69
2022-08-01T08:30:58.620Z,95368.69
2022-08-01T08:33:25.287Z,95371.78
2022-08-01T08:35:53.616Z,95373.94
2022-08-01T08:38:20.722Z,95370.50
2022-08-01T08:40:54.939Z,95369.78
2022-08-01T08:43:21.308Z,95367.06
2022-08-01T08:45:59.063Z,95368.34
2022-08-01T08:48:27.962Z,95367.44
2022-08-01T08:50:54.538Z,95377.94
2022-08-01T08:53:20.910Z,95371.22
2022-08-01T08:55:55.343Z,95364.13
2022-08-01T08:58:26.371Z,95368.34
2022-08-01T09:00:57.852Z,95362.66
2022-08-01T09:03:24.320Z,95362.13
2022-08-01T09:05:50.728Z,95361.03
2022-08-01T09:08:17.135Z,95362.66
2022-08-01T09:10:43.542Z,95373.38
2022-08-01T09:13:09.908Z,95360.84
2022-08-01T09:15:36.279Z,95366.25
2022-08-01T09:18:02.649Z,95360.66
2022-08-01T09:20:29.025Z,95361.53
2022-08-01T09:22:55.390Z,95364.09
2022-08-01T09:25:21.768Z,95361.56
2022-08-01T09:27:56.183Z,95373.19
2022-08-01T09:30:22.572Z,95362.47
2022-08-01T09:32:50.383Z,95362.47
2022-08-01T09:35:17.800Z,95362.25
2022-08-01T09:37:47.247Z,95366.63
2022-08-01T09:40:13.849Z,95364.81
2022-08-01T09:42:40.215Z,95369.16
2022-08-01T09:45:07.392Z,95368.44
2022-08-01T09:47:33.830Z,95363.34
2022-08-01T09:50:00.295Z,95361.72
2022-08-01T09:52:29.122Z,95361.50
2022-08-01T09:54:55.790Z,95356.97
2022-08-01T09:57:22.418Z,95358.25
2022-08-01T09:59:58.367Z,95356.81
2022-08-01T10:02:26.221Z,95352.63
2022-08-01T10:04:58.164Z,95357.16
2022-08-01T10:07:42.764Z,95346.81
2022-08-01T10:10:10.717Z,95349.72
2022-08-01T10:12:37.884Z,95345.91
2022-08-01T10:15:10.854Z,95339.34
2022-08-01T10:17:50.379Z,95339.34
2022-08-01T10:20:29.701Z,95333.00
2022-08-01T10:22:57.438Z,95330.06
2022-08-01T10:25:42.113Z,95334.09
2022-08-01T10:28:10.051Z,95330.25
2022-08-01T10:30:36.756Z,95322.78
2022-08-01T10:33:03.123Z,95325.72
2022-08-01T10:35:46.751Z,95318.06
2022-08-01T10:38:14.402Z,95307.69
2022-08-01T10:40:40.762Z,95309.28
2022-08-01T10:43:07.135Z,95311.31
2022-08-01T10:45:33.550Z,95309.50
2022-08-01T10:47:59.892Z,95301.13
2022-08-01T10:50:26.406Z,95297.09
2022-08-01T10:52:52.814Z,95310.00
2022-08-01T10:55:19.167Z,95307.09
2022-08-01T10:57:52.639Z,95302.56
2022-08-01T11:00:19.564Z,95313.09
2022-08-01T11:02:45.917Z,95305.66
2022-08-01T11:05:14.096Z,95304.03
2022-08-01T11:07:40.853Z,95303.47
2022-08-01T11:10:10.276Z,95305.78
2022-08-01T11:12:41.379Z,95294.00
2022-08-01T11:15:10.569Z,95293.06
2022-08-01T11:17:37.481Z,95295.84
2022-08-01T11:20:05.255Z,95292.00
2022-08-01T11:22:31.630Z,95296.69
2022-08-01T11:24:57.996Z,95287.28
2022-08-01T11:27:24.521Z,95283.03
2022-08-01T11:29:50.896Z,95283.03
2022-08-01T11:32:17.248Z,95282.44
2022-08-01T11:34:43.611Z,95277.50
2022-08-01T11:37:10.259Z,95272.59
2022-08-01T11:39:39.530Z,95275.06
2022-08-01T11:42:07.670Z,95266.19
2022-08-01T11:44:34.022Z,95264.56
2022-08-01T11:47:00.464Z,95264.41
2022-08-01T11:49:29.299Z,95253.06
2022-08-01T11:51:55.928Z,95251.41
2022-08-01T11:54:35.268Z,95255.78
2022-08-01T11:57:02.402Z,95247.59
2022-08-01T11:59:37.969Z,95243.56
2022-08-01T12:02:06.151Z,95241.66
2022-08-01T12:04:32.804Z,95238.59
2022-08-01T12:07:00.639Z,95233.06
2022-08-01T12:09:26.997Z,95243.50
2022-08-01T12:11:53.350Z,95236.91
2022-08-01T12:14:19.728Z,95233.47
2022-08-01T12:16:46.207Z,95239.63
2022-08-01T12:19:12.563Z,95227.22
2022-08-01T12:21:40.437Z,95234.69
2022-08-01T12:24:06.794Z,95230.59
2022-08-01T12:26:33.157Z,95230.50
2022-08-01T12:28:59.513Z,95227.59
2022-08-01T12:31:25.872Z,95228.50
2022-08-01T12:33:52.222Z,95231.22
2022-08-01T12:36:18.588Z,95230.50
2022-08-01T12:38:44.964Z,95230.81
2022-08-01T12:41:11.315Z,95229.56
2022-08-01T12:43:37.662Z,95230.09
2022-08-01T12:46:04.042Z,95228.66
2022-08-01T12:48:30.433Z,95226.22
2022-08-01T12:50:56.796Z,95232.56
2022-08-01T12:53:23.142Z,95225.97
2022-08-01T12:55:58.717Z,95231.59
2022-08-01T12:58:26.291Z,95230.63
2022-08-01T13:00:52.663Z,95226.28
2022-08-01T13:03:19.055Z,95228.06
2022-08-01T13:05:45.464Z,95227.91
2022-08-01T13:08:11.818Z,95227.41
2022-08-01T13:10:38.194Z,95222.91
2022-08-01T13:13:04.562Z,95225.16
2022-08-01T13:15:30.929Z,95215.84
2022-08-01T13:17:57.291Z,95214.56
2022-08-01T13:20:23.675Z,95210.88
2022-08-01T13:22:50.023Z,95214.13
2022-08-01T13:25:19.800Z,95217.03
2022-08-01T13:27:53.735Z,95212.31
2022-08-01T13:30:20.478Z,95206.13
2022-08-01T13:32:46.826Z,95210.72
2022-08-01T13:35:13.205Z,95212.00
2022-08-01T13:37:39.657Z,95212.31
2022-08-01T13:40:06.081Z,95211.84
2022-08-01T13:42:32.460Z,95210.44
2022-08-01T13:44:58.819Z,95202.38
2022-08-01T13:47:31.627Z,95200.69
2022-08-01T13:49:58.698Z,95204.47
2022-08-01T13:52:25.094Z,95200.47
2022-08-01T13:54:51.456Z,95201.59
2022-08-01T13:57:17.814Z,95194.00
2022-08-01T13:59:44.162Z,95190.00
2022-08-01T14:02:10.652Z,95195.31
2022-08-01T14:04:37.295Z,95184.13
2022-08-01T14:07:10.758Z,95187.56
2022-08-01T14:10:04.525Z,95179.63
2022-08-01T14:12:27.058Z,95188.41
2022-08-01T14:14:53.526Z,95189.00
2022-08-01T14:17:19.901Z,95191.75
2022-08-01T14:19:46.508Z,95193.44
2022-08-01T14:22:12.938Z,95192.38
2022-08-01T14:24:39.356Z,95187.88
2022-08-01T14:27:07.408Z,95192.06
2022-08-01T14:30:02.851Z,95182.59
2022-08-01T14:32:20.110Z,95181.53
2022-08-01T14:34:52.278Z,95181.16
2022-08-01T14:37:18.661Z,95175.94
2022-08-01T14:39:53.401Z,95178.19
2022-08-01T14:42:20.698Z,95180.50
2022-08-01T14:44:49.660Z,95164.19
2022-08-01T14:47:21.382Z,95173.84
2022-08-01T14:49:48.637Z,95176.41
2022-08-01T14:52:15.049Z,95181.63
2022-08-01T14:54:41.403Z,95183.25
2022-08-01T14:57:07.774Z,95180.03
2022-08-01T14:59:34.143Z,95189.66
2022-08-01T15:02:00.490Z,95178.19
2022-08-01T15:04:26.838Z,95178.59
2022-08-01T15:06:53.188Z,95170.53
2022-08-01T15:09:19.543Z,95163.94
2022-08-01T15:11:45.904Z,95170.13
2022-08-01T15:14:12.273Z,95178.25
2022-08-01T15:16:38.634Z,95182.13
2022-08-01T15:19:05.017Z,95177.47
2022-08-01T15:21:41.318Z,95184.22
2022-08-01T15:24:08.487Z,95183.41
2022-08-01T15:26:34.850Z,95182.94
2022-08-01T15:29:01.306Z,95177.63
2022-08-01T15:31:27.806Z,95177.66
2022-08-01T15:33:54.225Z,95176.91
2022-08-01T15:36:25.643Z,95173.44
2022-08-01T15:38:52.363Z,95184.22
2022-08-01T15:41:18.719Z,95182.19
2022-08-01T15:43:45.136Z,95165.09
2022-08-01T15:46:11.858Z,95167.03
2022-08-01T15:48:40.074Z,95171.91
2022-08-01T15:51:06.707Z,95179.78
2022-08-01T15:53:33.061Z,95188.41
2022-08-01T15:55:59.415Z,95180.03
2022-08-01T15:58:25.792Z,95181.47
2022-08-01T16:00:52.176Z,95184.78
2022-08-01T16:03:18.535Z,95184.63
2022-08-01T16:05:44.889Z,95188.66
2022-08-01T16:08:11.245Z,95184.31
2022-08-01T16:10:37.654Z,95186.97
2022-08-01T16:13:07.158Z,95177.06
2022-08-01T16:15:36.503Z,95181.41
2022-08-01T16:18:03.735Z,95175.06
2022-08-01T16:20:30.095Z,95188.00
2022-08-01T16:22:56.459Z,95189.28
2022-08-01T16:25:22.819Z,95192.28
2022-08-01T16:27:49.174Z,95184.06
2022-08-01T16:30:15.557Z,95193.28
2022-08-01T16:32:47.523Z,95180.63
2022-08-01T16:35:19.915Z,95182.19
2022-08-01T16:37:46.767Z,95178.03
2022-08-01T16:40:13.127Z,95176.59
2022-08-01T16:42:39.532Z,95173.03
2022-08-01T16:45:08.672Z,95175.69
2022-08-01T16:47:40.075Z,95163.63
2022-08-01T16:50:06.434Z,95168.69
2022-08-01T16:52:32.798Z,95173.03
2022-08-01T16:54:59.143Z,95180.09
2022-08-01T16:57:25.546Z,95171.66
2022-08-01T16:59:51.900Z,95184.28
2022-08-01T17:02:18.352Z,95179.69
2022-08-01T17:04:44.763Z,95183.50
2022-08-01T17:07:11.357Z,95184.03
2022-08-01T17:09:43.014Z,95186.47
2022-08-01T17:12:11.196Z,95190.78
2022-08-01T17:14:37.568Z,95197.63
2022-08-01T17:17:04.231Z,95200.75
2022-08-01T17:19:32.911Z,95198.81
2022-08-01T17:21:59.724Z,95202.84
2022-08-01T17:24:26.072Z,95211.75
2022-08-01T17:26:52.466Z,95207.97
2022-08-01T17:29:18.827Z,95200.13
2022-08-01T17:31:45.181Z,95191.28
2022-08-01T17:34:11.540Z,95199.63
2022-08-01T17:36:37.898Z,95203.63
2022-08-01T17:39:04.245Z,95200.03
2022-08-01T17:41:30.599Z,95203.97
2022-08-01T17:43:56.951Z,95209.03
2022-08-01T17:46:23.315Z,95205.97
2022-08-01T17:48:49.729Z,95212.31
2022-08-01T17:51:20.665Z,95214.41
2022-08-01T17:53:55.669Z,95215.03
2022-08-01T17:56:24.204Z,95208.56
2022-08-01T17:58:52.223Z,95210.41
2022-08-01T18:01:18.898Z,95210.72
2022-08-01T18:03:45.409Z,95210.16
2022-08-01T18:06:11.775Z,95214.31
2022-08-01T18:08:38.134Z,95206.53
2022-08-01T18:11:04.493Z,95215.63
2022-08-01T18:13:30.843Z,95215.69
2022-08-01T18:15:57.649Z,95216.88
2022-08-01T18:18:33.016Z,95216.34
2022-08-01T18:21:00.167Z,95228.06
2022-08-01T18:23:26.571Z,95225.34
2022-08-01T18:25:52.927Z,95228.44
2022-08-01T18:28:32.312Z,95228.06
2022-08-01T18:31:00.371Z,95224.44
2022-08-01T18:33:26.718Z,95237.88
2022-08-01T18:35:53.991Z,95238.25
2022-08-01T18:38:20.549Z,95234.56
2022-08-01T18:40:50.481Z,95245.31
2022-08-01T18:43:16.860Z,95241.88
2022-08-01T18:45:43.339Z,95244.47
2022-08-01T18:48:09.739Z,95244.50
2022-08-01T18:50:36.096Z,95239.53
2022-08-01T18:53:02.447Z,95237.22
2022-08-01T18:55:28.790Z,95232.25
2022-08-01T18:57:55.148Z,95226.59
2022-08-01T19:00:21.494Z,95230.94
2022-08-01T19:02:47.843Z,95240.03
2022-08-01T19:05:14.203Z,95240.13
2022-08-01T19:08:04.964Z,95243.72
2022-08-01T19:10:26.918Z,95249.91
2022-08-01T19:12:53.307Z,95248.44
2022-08-01T19:15:19.687Z,95255.94
2022-08-01T19:17:46.039Z,95248.44
2022-08-01T19:20:12.399Z,95254.31
2022-08-01T19:22:38.751Z,95258.09
2022-08-01T19:25:05.109Z,95263.22
2022-08-01T19:27:31.463Z,95266.84
2022-08-01T19:29:57.824Z,95275.63
2022-08-01T19:32:24.196Z,95273.66
2022-08-01T19:34:50.556Z,95276.72
2022-08-01T19:37:16.910Z,95277.59
2022-08-01T19:39:43.262Z,95278.34
2022-08-01T19:42:09.644Z,95286.38
2022-08-01T19:44:36.007Z,95289.41
2022-08-01T19:47:02.367Z,95296.38
2022-08-01T19:49:28.803Z,95292.00
2022-08-01T19:51:55.214Z,95294.78
2022-08-01T19:54:21.584Z,95300.25
2022-08-01T19:56:47.982Z,95301.31
2022-08-01T19:59:14.348Z,95310.44
2022-08-01T20:01:40.705Z,95306.78
2022-08-01T20:04:07.066Z,95307.88
2022-08-01T20:06:33.409Z,95309.88
2022-08-01T20:08:59.806Z,95313.34
2022-08-01T20:11:26.157Z,95316.41
2022-08-01T20:13:52.520Z,95310.75
2022-08-01T20:16:18.880Z,95316.22
2022-08-01T20:18:45.239Z,95317.34
2022-08-01T20:21:11.591Z,95316.63
2022-08-01T20:23:37.951Z,95315.19
2022-08-01T20:26:04.302Z,95316.22
2022-08-01T20:28:30.654Z,95322.47
2022-08-01T20:30:57.024Z,95323.91
2022-08-01T20:33:23.383Z,95327.53
2022-08-01T20:35:53.195Z,95323.19
2022-08-01T20:38:20.258Z,95329.38
2022-08-01T20:40:49.407Z,95324.25
2022-08-01T20:43:15.769Z,95323.19
2022-08-01T20:45:42.121Z,95321.19
2022-08-01T20:48:08.475Z,95326.50
2022-08-01T20:50:53.853Z,95327.75
2022-08-01T20:53:21.062Z,95327.38
2022-08-01T20:55:47.415Z,95333.56
2022-08-01T20:58:13.769Z,95333.41
2022-08-01T21:00:40.187Z,95339.19
2022-08-01T21:03:06.592Z,95340.88
2022-08-01T21:05:32.950Z,95334.13
2022-08-01T21:07:59.295Z,95327.03
2022-08-01T21:10:25.707Z,95333.00
2022-08-01T21:12:52.061Z,95344.72
2022-08-01T21:15:18.416Z,95337.25
2022-08-01T21:17:45.910Z,95335.94
2022-08-01T21:20:12.255Z,95337.97
2022-08-01T21:22:38.609Z,95338.53
2022-08-01T21:25:04.960Z,95345.03
2022-08-01T21:27:33.732Z,95343.03
2022-08-01T21:30:00.419Z,95339.25
2022-08-01T21:32:26.773Z,95340.16
2022-08-01T21:34:55.755Z,95351.78
2022-08-01T21:37:22.112Z,95336.13
2022-08-01T21:39:48.469Z,95334.13
2022-08-01T21:42:18.681Z,95337.56
2022-08-01T21:44:45.455Z,95327.63
2022-08-01T21:47:12.159Z,95331.22
2022-08-01T21:49:38.592Z,95335.94
2022-08-01T21:52:08.758Z,95329.78
2022-08-01T21:54:35.382Z,95325.59
2022-08-01T21:57:01.784Z,95327.22
2022-08-01T21:59:28.154Z,95328.66
2022-08-01T22:01:54.567Z,95320.88
2022-08-01T22:04:20.966Z,95323.59
2022-08-01T22:06:47.332Z,95330.09
2022-08-01T22:09:13.686Z,95330.50
2022-08-01T22:11:59.424Z,95330.50
2022-08-01T22:14:26.353Z,95330.09
2022-08-01T22:16:52.698Z,95331.97
2022-08-01T22:19:37.581Z,95336.34
2022-08-01T22:22:44.360Z,95341.41
2022-08-01T22:24:52.417Z,95333.06
2022-08-01T22:27:18.771Z,95328.88
2022-08-01T22:29:45.127Z,95333.22
2022-08-01T22:32:11.681Z,95335.94
2022-08-01T22:34:38.267Z,95337.78
2022-08-01T22:37:13.456Z,95337.41
2022-08-01T22:39:41.288Z,95341.59
2022-08-01T22:42:07.640Z,95336.34
2022-08-01T22:44:34.031Z,95340.53
2022-08-01T22:47:00.395Z,95342.75
2022-08-01T22:49:26.790Z,95345.81
2022-08-01T22:51:55.387Z,95346.75
2022-08-01T22:54:22.179Z,95349.66
2022-08-01T22:56:48.534Z,95345.09
2022-08-01T22:59:14.890Z,95339.69
2022-08-01T23:01:41.316Z,95345.38
2022-08-01T23:04:14.406Z,95349.09
2022-08-01T23:06:40.775Z,95347.09
2022-08-01T23:09:07.123Z,95343.25
2022-08-01T23:11:33.489Z,95340.53
2022-08-01T23:13:59.858Z,95346.72
2022-08-01T23:16:26.217Z,95339.97
2022-08-01T23:18:52.589Z,95343.81
2022-08-01T23:21:18.957Z,95344.94
2022-08-01T23:23:45.319Z,95343.09
2022-08-01T23:26:11.669Z,95348.56
2022-08-01T23:28:41.858Z,95350.56
2022-08-01T23:31:08.225Z,95350.91
2022-08-01T23:33:34.596Z,95343.31
2022-08-01T23:36:00.964Z,95341.13
2022-08-01T23:38:27.314Z,95342.19
2022-08-01T23:40:53.681Z,95346.38
2022-08-01T23:43:20.039Z,95347.84
2022-08-01T23:46:03.996Z,95347.09
2022-08-01T23:48:31.198Z,95348.66
2022-08-01T23:50:57.619Z,95348.59
2022-08-01T23:53:24.002Z,95351.31
2022-08-01T23:55:57.161Z,95348.59
2022-08-01T23:58:23.937Z,95346.97
